createdAt,value
2022-10-11T00:00:19.674Z,9.68
2022-10-11T00:02:46.910Z,7.75
2022-10-11T00:05:14.167Z,6.35
2022-10-11T00:07:41.407Z,7.47
2022-10-11T00:10:09.991Z,9.00
2022-10-11T00:12:37.301Z,18.02
2022-10-11T00:15:07.130Z,7.28
2022-10-11T00:17:35.119Z,7.33
2022-10-11T00:20:02.329Z,7.38
2022-10-11T00:22:29.503Z,6.93
2022-10-11T00:24:58.753Z,8.00
2022-10-11T00:27:26.068Z,8.80
2022-10-11T00:29:53.899Z,8.32
2022-10-11T00:32:21.123Z,7.85
2022-10-11T00:34:48.423Z,10.05
2022-10-11T00:37:15.599Z,7.15
2022-10-11T00:39:42.931Z,7.72
2022-10-11T00:42:17.505Z,8.38
2022-10-11T00:44:48.120Z,7.82
2022-10-11T00:50:01.735Z,11.98
2022-10-11T00:52:42.131Z,12.70
2022-10-11T00:55:17.103Z,9.85
2022-10-11T00:57:48.684Z,9.48
2022-10-11T01:00:16.813Z,11.82
2022-10-11T01:02:44.302Z,10.30
2022-10-11T01:05:32.226Z,6.35
2022-10-11T01:08:00.914Z,11.68
2022-10-11T01:10:29.134Z,8.60
2022-10-11T01:13:25.850Z,11.60
2022-10-11T01:16:10.488Z,10.95
2022-10-11T01:18:48.393Z,8.80
2022-10-11T01:21:46.785Z,16.70
2022-10-11T01:24:20.343Z,8.40
2022-10-11T01:27:06.554Z,10.10
2022-10-11T01:29:57.211Z,9.18
2022-10-11T01:32:38.700Z,14.88
2022-10-11T01:35:24.650Z,11.82
2022-10-11T01:38:08.058Z,12.02
2022-10-11T01:40:51.364Z,11.07
2022-10-11T01:43:20.545Z,9.52
2022-10-11T01:45:52.653Z,11.50
2022-10-11T01:48:19.987Z,15.73
2022-10-11T01:50:50.381Z,9.07
2022-10-11T01:53:35.886Z,12.13
2022-10-11T01:56:30.309Z,11.57
2022-10-11T01:59:22.296Z,9.75
2022-10-11T02:02:37.595Z,9.65
2022-10-11T02:05:40.233Z,16.25
2022-10-11T02:08:20.276Z,10.57
2022-10-11T02:11:19.880Z,11.07
2022-10-11T02:14:06.784Z,10.88
2022-10-11T02:16:44.020Z,9.90
2022-10-11T02:19:17.159Z,12.15
2022-10-11T02:21:47.448Z,14.07
2022-10-11T02:24:27.313Z,11.02
2022-10-11T02:26:57.391Z,10.27
2022-10-11T02:29:30.646Z,9.75
2022-10-11T02:32:00.693Z,8.60
2022-10-11T02:34:44.938Z,9.10
2022-10-11T02:37:40.467Z,8.77
2022-10-11T02:40:32.079Z,7.97
2022-10-11T02:43:18.265Z,9.00
2022-10-11T02:46:00.244Z,7.22
2022-10-11T02:48:29.447Z,12.70
2022-10-11T02:50:58.784Z,9.93
2022-10-11T02:53:27.247Z,6.68
2022-10-11T02:55:56.024Z,10.07
2022-10-11T02:58:24.685Z,10.68
2022-10-11T03:00:52.092Z,8.48
2022-10-11T03:03:19.470Z,12.90
2022-10-11T03:05:46.699Z,12.55
2022-10-11T03:08:16.453Z,8.80
2022-10-11T03:10:44.336Z,12.70
2022-10-11T03:13:14.825Z,9.90
2022-10-11T03:15:47.927Z,9.40
2022-10-11T03:18:15.811Z,11.30
2022-10-11T03:20:43.379Z,9.48
2022-10-11T03:23:11.451Z,11.07
2022-10-11T03:25:39.322Z,14.35
2022-10-11T03:28:06.792Z,9.10
2022-10-11T03:30:34.138Z,13.07
2022-10-11T03:33:01.411Z,9.10
2022-10-11T03:35:28.604Z,11.30
2022-10-11T03:37:55.791Z,8.43
2022-10-11T03:40:22.929Z,8.85
2022-10-11T03:42:50.412Z,11.00
2022-10-11T03:45:17.750Z,12.38
2022-10-11T03:47:44.930Z,11.02
2022-10-11T03:50:12.189Z,9.25
2022-10-11T03:52:39.486Z,11.27
2022-10-11T03:55:07.386Z,12.63
2022-10-11T03:57:34.646Z,12.43
2022-10-11T04:00:01.860Z,9.50
2022-10-11T04:02:29.195Z,11.13
2022-10-11T04:04:56.421Z,10.50
2022-10-11T04:07:23.680Z,9.35
2022-10-11T04:09:52.179Z,9.63
2022-10-11T04:12:19.897Z,10.55
2022-10-11T04:14:47.076Z,10.90
2022-10-11T04:17:14.304Z,15.10
2022-10-11T04:19:41.508Z,11.38
2022-10-11T04:22:09.052Z,11.57
2022-10-11T04:24:36.474Z,8.52
2022-10-11T04:27:03.840Z,12.73
2022-10-11T04:29:32.735Z,13.15
2022-10-11T04:32:00.499Z,10.80
2022-10-11T04:34:27.796Z,11.25
2022-10-11T04:36:55.053Z,9.27
2022-10-11T04:39:22.340Z,10.73
2022-10-11T04:41:49.564Z,10.95
2022-10-11T04:44:16.812Z,9.15
2022-10-11T04:46:44.155Z,11.93
2022-10-11T04:49:11.603Z,9.88
2022-10-11T04:51:38.845Z,9.70
2022-10-11T04:54:06.097Z,12.15
2022-10-11T04:56:33.483Z,10.88
2022-10-11T04:59:00.941Z,9.73
2022-10-11T05:01:28.186Z,15.13
2022-10-11T05:03:55.558Z,13.65
2022-10-11T05:06:22.887Z,10.52
2022-10-11T05:08:50.378Z,11.80
2022-10-11T05:11:18.098Z,10.90
2022-10-11T05:13:46.810Z,8.63
2022-10-11T05:16:15.481Z,9.57
2022-10-11T05:18:43.477Z,12.07
2022-10-11T05:21:20.467Z,15.32
2022-10-11T05:23:50.242Z,12.05
2022-10-11T05:26:19.135Z,11.43
2022-10-11T05:28:47.476Z,12.40
2022-10-11T05:31:15.722Z,11.55
2022-10-11T05:33:44.367Z,19.05
2022-10-11T05:36:12.405Z,11.95
2022-10-11T05:38:40.251Z,13.43
2022-10-11T05:41:11.034Z,12.48
2022-10-11T05:43:38.378Z,11.75
2022-10-11T05:46:06.747Z,11.18
2022-10-11T05:48:34.466Z,13.90
2022-10-11T05:51:05.252Z,17.02
2022-10-11T05:53:33.181Z,11.65
2022-10-11T05:56:00.809Z,12.60
2022-10-11T05:58:28.114Z,11.00
2022-10-11T06:00:57.054Z,10.98
2022-10-11T06:03:24.572Z,7.90
2022-10-11T06:05:56.474Z,10.40
2022-10-11T06:08:24.357Z,9.68
2022-10-11T06:10:51.615Z,10.48
2022-10-11T06:13:18.952Z,19.70
2022-10-11T06:15:46.159Z,12.48
2022-10-11T06:18:13.896Z,12.70
2022-10-11T06:20:41.173Z,12.95
2022-10-11T06:23:08.377Z,12.15
2022-10-11T06:25:35.823Z,13.13
2022-10-11T06:28:03.162Z,11.30
2022-10-11T06:30:30.353Z,12.90
2022-10-11T06:33:02.397Z,11.38
2022-10-11T06:35:31.745Z,13.75
2022-10-11T06:37:59.017Z,11.77
2022-10-11T06:40:26.206Z,12.23
2022-10-11T06:42:53.429Z,9.63
2022-10-11T06:45:20.711Z,12.55
2022-10-11T06:47:47.838Z,14.38
2022-10-11T06:50:15.173Z,12.68
2022-10-11T06:52:42.383Z,12.20
2022-10-11T06:55:10.096Z,11.32
2022-10-11T06:57:37.437Z,12.07
2022-10-11T07:00:11.689Z,12.13
2022-10-11T07:02:39.895Z,13.48
2022-10-11T07:05:08.361Z,11.52
2022-10-11T07:07:35.638Z,13.50
2022-10-11T07:10:02.928Z,12.40
2022-10-11T07:12:30.178Z,13.32
2022-10-11T07:14:57.412Z,12.57
2022-10-11T07:17:25.578Z,15.45
2022-10-11T07:19:52.795Z,15.32
2022-10-11T07:22:19.942Z,16.02
2022-10-11T07:24:49.183Z,11.25
2022-10-11T07:27:16.420Z,12.27
2022-10-11T07:29:43.740Z,12.70
2022-10-11T07:32:11.256Z,9.00
2022-10-11T07:34:38.484Z,15.90
2022-10-11T07:37:05.804Z,11.18
2022-10-11T07:39:33.097Z,12.18
2022-10-11T07:42:00.568Z,12.35
2022-10-11T07:44:27.767Z,12.00
2022-10-11T07:46:54.972Z,14.88
2022-10-11T07:49:22.148Z,11.32
2022-10-11T07:51:49.420Z,11.60
2022-10-11T07:54:16.610Z,14.10
2022-10-11T07:56:43.752Z,20.17
2022-10-11T07:59:11.552Z,13.30
2022-10-11T08:01:38.908Z,11.10
2022-10-11T08:04:06.245Z,12.63
2022-10-11T08:06:33.474Z,13.38
2022-10-11T08:09:01.942Z,9.77
2022-10-11T08:11:33.525Z,10.00
2022-10-11T08:14:01.725Z,11.88
2022-10-11T08:16:29.211Z,14.52
2022-10-11T08:18:57.290Z,14.40
2022-10-11T08:21:26.921Z,11.05
2022-10-11T08:23:54.271Z,9.80
2022-10-11T08:26:22.244Z,12.85
2022-10-11T08:28:49.528Z,16.30
2022-10-11T08:31:16.942Z,11.02
2022-10-11T08:33:44.603Z,9.77
2022-10-11T08:36:12.664Z,12.60
2022-10-11T08:38:40.776Z,12.27
2022-10-11T08:42:32.631Z,14.98
2022-10-11T08:45:12.269Z,8.75
2022-10-11T08:47:45.837Z,12.60
2022-10-11T08:50:22.464Z,14.27
2022-10-11T08:52:59.713Z,12.43
2022-10-11T08:55:43.976Z,13.60
2022-10-11T08:58:19.611Z,13.32
2022-10-11T09:00:50.207Z,12.93
2022-10-11T09:06:26.630Z,16.88
2022-10-11T09:09:21.698Z,14.98
2022-10-11T09:12:12.014Z,12.68
2022-10-11T09:15:15.961Z,12.88
2022-10-11T09:18:14.251Z,27.52
2022-10-11T09:21:09.282Z,14.90
2022-10-11T09:23:43.925Z,17.60
2022-10-11T09:26:35.340Z,16.35
2022-10-11T09:29:07.107Z,15.30
2022-10-11T09:31:34.681Z,16.08
2022-10-11T09:34:14.444Z,17.90
2022-10-11T09:36:58.089Z,22.95
2022-10-11T09:39:39.922Z,18.55
2022-10-11T09:42:10.510Z,18.80
2022-10-11T09:47:27.216Z,17.52
2022-10-11T09:50:14.369Z,18.17
2022-10-11T09:52:54.201Z,19.70
2022-10-11T09:55:51.047Z,15.52
2022-10-11T09:58:32.937Z,19.13
2022-10-11T10:01:21.933Z,18.42
2022-10-11T10:04:08.857Z,22.30
2022-10-11T10:06:36.706Z,23.13
2022-10-11T10:09:25.714Z,17.00
2022-10-11T10:11:55.557Z,16.90
2022-10-11T10:14:30.776Z,15.90
2022-10-11T10:17:06.289Z,16.90
2022-10-11T10:19:45.044Z,14.43
2022-10-11T10:22:27.471Z,14.20
2022-10-11T10:24:56.337Z,15.52
2022-10-11T10:27:30.139Z,19.98
2022-10-11T10:30:13.699Z,17.60
2022-10-11T10:32:55.731Z,17.55
2022-10-11T10:35:53.801Z,17.92
2022-10-11T10:38:30.111Z,18.30
2022-10-11T10:41:04.350Z,13.85
2022-10-11T10:43:37.899Z,15.75
2022-10-11T10:46:20.059Z,15.57
2022-10-11T10:52:21.772Z,18.95
2022-10-11T10:55:07.725Z,16.92
2022-10-11T10:57:47.543Z,16.45
2022-10-11T11:00:22.985Z,19.10
2022-10-11T11:03:21.162Z,17.35
2022-10-11T11:06:06.495Z,12.70
2022-10-11T11:09:04.619Z,18.45
2022-10-11T11:11:42.005Z,13.70
2022-10-11T11:14:52.430Z,13.00
2022-10-11T11:17:52.368Z,22.92
2022-10-11T11:20:52.107Z,13.85
2022-10-11T11:23:54.228Z,15.23
2022-10-11T11:26:44.295Z,14.55
2022-10-11T11:29:43.785Z,18.65
2022-10-11T11:32:21.453Z,15.50
2022-10-11T11:35:01.216Z,19.13
2022-10-11T11:37:41.478Z,18.10
2022-10-11T11:40:34.930Z,15.13
2022-10-11T11:43:15.007Z,14.38
2022-10-11T11:46:38.572Z,14.35
2022-10-11T11:49:21.517Z,14.63
2022-10-11T11:51:50.426Z,11.45
2022-10-11T11:54:28.922Z,14.75
2022-10-11T11:57:02.520Z,15.80
2022-10-11T11:59:35.545Z,19.83
2022-10-11T12:02:41.768Z,15.82
2022-10-11T12:05:13.319Z,13.32
2022-10-11T12:08:08.384Z,12.93
2022-10-11T12:10:50.379Z,11.30
2022-10-11T12:13:51.454Z,16.10
2022-10-11T12:16:20.210Z,13.10
2022-10-11T12:19:14.446Z,14.50
2022-10-11T12:21:44.830Z,14.25
2022-10-11T12:24:21.141Z,15.70
2022-10-11T12:26:56.909Z,17.30
2022-10-11T12:29:44.922Z,15.65
2022-10-11T12:32:34.808Z,11.55
2022-10-11T12:35:33.576Z,14.00
2022-10-11T12:38:21.505Z,14.57
2022-10-11T12:41:17.019Z,13.30
2022-10-11T12:43:50.288Z,12.18
2022-10-11T12:46:29.369Z,17.17
2022-10-11T12:49:24.516Z,13.98
2022-10-11T12:52:17.743Z,16.00
2022-10-11T12:55:27.373Z,14.25
2022-10-11T12:58:24.046Z,14.77
2022-10-11T13:00:51.209Z,15.63
2022-10-11T13:03:39.561Z,14.20
2022-10-11T13:06:25.132Z,15.70
2022-10-11T13:09:07.186Z,16.25
2022-10-11T13:11:46.429Z,16.33
2022-10-11T13:14:21.998Z,11.13
2022-10-11T13:17:04.172Z,14.13
2022-10-11T13:19:36.585Z,12.10
2022-10-11T13:22:18.233Z,19.60
2022-10-11T13:24:45.603Z,14.10
2022-10-11T13:27:23.061Z,14.63
2022-10-11T13:29:54.312Z,13.80
2022-10-11T13:32:28.295Z,12.50
2022-10-11T13:35:01.516Z,10.60
2022-10-11T13:37:31.305Z,12.23
2022-10-11T13:39:59.283Z,12.85
2022-10-11T13:42:31.805Z,11.90
2022-10-11T13:45:00.810Z,12.38
2022-10-11T13:47:32.030Z,12.93
2022-10-11T13:50:15.884Z,7.57
2022-10-11T13:53:10.833Z,13.07
2022-10-11T13:56:07.971Z,12.00
2022-10-11T13:58:46.851Z,5.75
2022-10-11T14:01:28.367Z,10.00
2022-10-11T14:04:01.412Z,8.68
2022-10-11T14:06:56.157Z,14.30
2022-10-11T14:09:39.181Z,14.82
2022-10-11T14:12:31.956Z,13.40
2022-10-11T14:15:01.055Z,10.32
2022-10-11T14:17:44.410Z,13.13
2022-10-11T14:20:16.919Z,11.48
2022-10-11T14:22:44.457Z,14.23
2022-10-11T14:25:12.970Z,13.18
2022-10-11T14:27:40.779Z,12.45
2022-10-11T14:30:27.286Z,11.23
2022-10-11T14:32:59.498Z,12.27
2022-10-11T14:35:31.971Z,15.73
2022-10-11T14:37:59.557Z,12.18
2022-10-11T14:40:30.534Z,20.17
2022-10-11T14:42:58.185Z,15.15
2022-10-11T14:45:25.899Z,15.32
2022-10-11T14:47:53.606Z,16.17
2022-10-11T14:50:48.054Z,16.20
2022-10-11T14:53:15.662Z,13.13
2022-10-11T14:55:43.532Z,15.05
2022-10-11T14:58:14.749Z,16.73
2022-10-11T15:00:42.325Z,17.23
2022-10-11T15:03:09.946Z,11.13
2022-10-11T15:05:38.213Z,15.13
2022-10-11T15:08:07.634Z,17.30
2022-10-11T15:10:39.867Z,26.48
2022-10-11T15:13:08.641Z,16.20
2022-10-11T15:15:41.197Z,14.80
2022-10-11T15:18:12.616Z,15.90
2022-10-11T15:20:43.672Z,11.95
2022-10-11T15:23:12.228Z,15.82
2022-10-11T15:25:41.524Z,20.45
2022-10-11T15:28:28.777Z,15.05
2022-10-11T15:30:56.884Z,12.10
2022-10-11T15:33:25.676Z,13.02
2022-10-11T15:35:52.975Z,28.40
2022-10-11T15:38:24.809Z,13.70
2022-10-11T15:40:53.777Z,16.52
2022-10-11T15:43:24.778Z,12.50
2022-10-11T15:45:52.701Z,10.82
2022-10-11T15:48:22.960Z,11.93
2022-10-11T15:50:51.202Z,15.98
2022-10-11T15:53:37.087Z,13.70
2022-10-11T15:56:15.227Z,16.35
2022-10-11T15:58:43.077Z,15.75
2022-10-11T16:01:18.833Z,15.60
2022-10-11T16:03:48.581Z,14.18
2022-10-11T16:06:16.995Z,15.13
2022-10-11T16:08:44.319Z,12.23
2022-10-11T16:11:12.838Z,11.57
2022-10-11T16:13:40.508Z,12.43
2022-10-11T16:16:09.787Z,14.85
2022-10-11T16:18:37.619Z,14.07
2022-10-11T16:21:10.798Z,15.85
2022-10-11T16:23:38.790Z,14.93
2022-10-11T16:26:10.021Z,12.85
2022-10-11T16:28:37.864Z,16.17
2022-10-11T16:31:11.461Z,17.90
2022-10-11T16:33:45.948Z,19.15
2022-10-11T16:36:40.560Z,18.38
2022-10-11T16:39:14.301Z,18.30
2022-10-11T16:41:42.710Z,23.73
2022-10-11T16:44:18.590Z,28.80
2022-10-11T16:46:48.490Z,34.08
2022-10-11T16:49:25.985Z,34.10
2022-10-11T16:51:57.022Z,39.25
2022-10-11T16:54:24.397Z,35.20
2022-10-11T16:56:51.620Z,43.55
2022-10-11T16:59:19.500Z,36.80
2022-10-11T17:01:46.789Z,38.15
2022-10-11T17:04:14.273Z,35.33
2022-10-11T17:06:43.943Z,37.47
2022-10-11T17:09:11.762Z,30.67
2022-10-11T17:11:40.719Z,30.42
2022-10-11T17:14:08.245Z,26.95
2022-10-11T17:16:36.057Z,25.70
2022-10-11T17:19:03.983Z,23.88
2022-10-11T17:21:31.431Z,23.17
2022-10-11T17:23:58.947Z,21.27
2022-10-11T17:26:27.919Z,22.85
2022-10-11T17:28:58.157Z,22.40
2022-10-11T17:31:27.003Z,24.20
2022-10-11T17:33:54.960Z,23.95
2022-10-11T17:36:34.655Z,21.90
2022-10-11T17:39:07.198Z,24.13
2022-10-11T17:41:34.974Z,23.55
2022-10-11T17:44:03.226Z,21.48
2022-10-11T17:46:34.165Z,23.35
2022-10-11T17:49:05.503Z,23.98
2022-10-11T17:51:34.057Z,23.67
2022-10-11T17:54:01.564Z,32.13
2022-10-11T17:56:33.692Z,23.35
2022-10-11T17:59:03.971Z,32.28
2022-10-11T18:01:31.292Z,25.27
2022-10-11T18:04:03.170Z,22.50
2022-10-11T18:06:34.408Z,20.48
2022-10-11T18:09:03.375Z,19.67
2022-10-11T18:11:31.691Z,16.48
2022-10-11T18:13:59.353Z,24.67
2022-10-11T18:16:29.764Z,19.35
2022-10-11T18:18:58.321Z,20.35
2022-10-11T18:21:34.322Z,21.52
2022-10-11T18:24:06.074Z,17.25
2022-10-11T18:26:34.491Z,17.02
2022-10-11T18:29:01.772Z,16.50
2022-10-11T18:31:31.129Z,16.13
2022-10-11T18:33:58.777Z,16.95
2022-10-11T18:36:28.976Z,19.20
2022-10-11T18:39:05.559Z,22.25
2022-10-11T18:41:35.312Z,22.10
2022-10-11T18:44:06.788Z,24.00
2022-10-11T18:46:34.959Z,23.27
2022-10-11T18:49:02.944Z,20.40
2022-10-11T18:51:39.820Z,19.30
2022-10-11T18:54:12.052Z,22.63
2022-10-11T18:56:41.703Z,20.98
2022-10-11T18:59:10.217Z,19.48
2022-10-11T19:01:42.087Z,21.25
2022-10-11T19:04:12.804Z,22.77
2022-10-11T19:06:44.663Z,24.60
2022-10-11T19:09:24.521Z,21.85
2022-10-11T19:11:57.574Z,28.10
2022-10-11T19:14:29.078Z,22.08
2022-10-11T19:16:58.121Z,25.55
2022-10-11T19:19:29.388Z,30.73
2022-10-11T19:21:57.056Z,28.75
2022-10-11T19:24:27.127Z,29.15
2022-10-11T19:26:59.726Z,29.70
2022-10-11T19:29:29.789Z,40.72
2022-10-11T19:32:00.697Z,49.50
2022-10-11T19:34:28.963Z,57.08
2022-10-11T19:36:57.311Z,51.17
2022-10-11T19:39:25.595Z,49.30
2022-10-11T19:41:54.017Z,43.30
2022-10-11T19:44:21.509Z,37.45
2022-10-11T19:46:52.762Z,36.17
2022-10-11T19:49:25.914Z,32.65
2022-10-11T19:51:55.567Z,43.15
2022-10-11T19:54:23.913Z,30.07
2022-10-11T19:56:51.634Z,37.80
2022-10-11T19:59:19.184Z,36.30
2022-10-11T20:01:52.258Z,32.83
2022-10-11T20:07:08.041Z,47.58
2022-10-11T20:09:35.364Z,36.17
2022-10-11T20:12:02.900Z,41.33
2022-10-11T20:14:30.319Z,41.67
2022-10-11T20:16:58.126Z,49.50
2022-10-11T20:19:31.034Z,51.85
2022-10-11T20:22:00.565Z,57.58
2022-10-11T20:24:33.050Z,55.05
2022-10-11T20:27:04.117Z,41.40
2022-10-11T20:29:31.814Z,45.30
2022-10-11T20:31:59.142Z,42.60
2022-10-11T20:34:27.808Z,41.20
2022-10-11T20:36:55.321Z,43.40
2022-10-11T20:39:23.675Z,43.42
2022-10-11T20:41:51.250Z,41.53
2022-10-11T20:44:18.717Z,39.25
2022-10-11T20:46:46.081Z,31.92
2022-10-11T20:49:13.480Z,41.95
2022-10-11T20:51:42.909Z,40.28
2022-10-11T20:54:11.054Z,45.45
2022-10-11T20:56:38.867Z,47.13
2022-10-11T20:59:06.777Z,34.35
2022-10-11T21:01:40.341Z,41.30
2022-10-11T21:04:17.375Z,41.25
2022-10-11T21:06:44.822Z,39.00
2022-10-11T21:09:15.463Z,32.78
2022-10-11T21:11:44.123Z,39.40
2022-10-11T21:14:11.768Z,43.13
2022-10-11T21:16:39.355Z,37.03
2022-10-11T21:19:06.643Z,31.75
2022-10-11T21:21:34.756Z,35.45
2022-10-11T21:24:02.741Z,29.40
2022-10-11T21:26:31.107Z,31.48
2022-10-11T21:29:04.043Z,33.47
2022-10-11T21:31:34.390Z,29.80
2022-10-11T21:34:02.790Z,27.30
2022-10-11T21:36:31.033Z,32.78
2022-10-11T21:38:58.395Z,33.70
2022-10-11T21:41:30.164Z,36.35
2022-10-11T21:43:58.201Z,33.40
2022-10-11T21:47:01.252Z,30.02
2022-10-11T21:49:20.113Z,32.75
2022-10-11T21:51:47.405Z,30.23
2022-10-11T21:54:14.673Z,30.95
2022-10-11T21:56:42.717Z,32.40
2022-10-11T21:59:12.435Z,36.05
2022-10-11T22:01:41.145Z,29.45
2022-10-11T22:04:08.522Z,25.58
2022-10-11T22:06:37.469Z,26.33
2022-10-11T22:09:06.547Z,28.48
2022-10-11T22:11:33.929Z,34.35
2022-10-11T22:14:01.267Z,32.08
2022-10-11T22:16:28.439Z,33.40
2022-10-11T22:18:55.694Z,27.35
2022-10-11T22:21:24.739Z,28.48
2022-10-11T22:23:54.151Z,26.73
2022-10-11T22:26:25.832Z,31.45
2022-10-11T22:28:53.490Z,29.80
2022-10-11T22:31:21.577Z,28.52
2022-10-11T22:33:52.840Z,28.65
2022-10-11T22:36:20.102Z,27.10
2022-10-11T22:38:47.784Z,27.60
2022-10-11T22:41:15.085Z,32.75
2022-10-11T22:43:42.676Z,26.95
2022-10-11T22:46:10.826Z,30.77
2022-10-11T22:48:38.221Z,31.35
2022-10-11T22:51:05.757Z,32.97
2022-10-11T22:53:33.325Z,32.70
2022-10-11T22:56:00.919Z,34.13
2022-10-11T22:58:28.348Z,33.55
2022-10-11T23:00:55.647Z,32.45
2022-10-11T23:03:23.028Z,33.53
2022-10-11T23:05:57.870Z,39.20
2022-10-11T23:08:26.107Z,33.03
2022-10-11T23:10:53.771Z,37.88
2022-10-11T23:13:21.162Z,36.92
2022-10-11T23:15:48.531Z,30.38
2022-10-11T23:18:17.226Z,29.77
2022-10-11T23:20:44.629Z,33.33
2022-10-11T23:23:11.805Z,35.33
2022-10-11T23:25:39.127Z,31.13
2022-10-11T23:28:06.351Z,36.53
2022-10-11T23:30:33.793Z,39.47
2022-10-11T23:33:01.058Z,32.00
2022-10-11T23:35:28.188Z,35.60
2022-10-11T23:37:55.455Z,32.25
2022-10-11T23:40:22.743Z,33.67
2022-10-11T23:42:49.996Z,27.73
2022-10-11T23:45:17.224Z,30.63
2022-10-11T23:47:44.392Z,33.10
2022-10-11T23:50:11.617Z,31.55
2022-10-11T23:52:38.883Z,27.77
2022-10-11T23:55:06.435Z,28.70
2022-10-11T23:57:34.140Z,29.70
